createdAt,value
2022-10-22T00:01:01.628Z,60.54
2022-10-22T00:03:30.815Z,60.72
2022-10-22T00:05:57.790Z,60.54
2022-10-22T00:08:24.426Z,60.22
2022-10-22T00:10:53.746Z,60.25
2022-10-22T00:13:20.950Z,59.70
2022-10-22T00:15:50.664Z,59.09
2022-10-22T00:18:19.094Z,59.25
2022-10-22T00:20:45.818Z,58.90
2022-10-22T00:23:12.421Z,58.39
2022-10-22T00:25:41.734Z,58.67
2022-10-22T00:28:10.346Z,58.45
2022-10-22T00:30:38.942Z,58.18
2022-10-22T00:33:05.664Z,57.67
2022-10-22T00:35:33.035Z,57.68
2022-10-22T00:38:00.558Z,57.62
2022-10-22T00:40:37.774Z,57.60
2022-10-22T00:43:07.892Z,57.62
2022-10-22T00:45:39.229Z,57.73
2022-10-22T00:48:15.005Z,57.96
2022-10-22T00:50:44.415Z,57.38
2022-10-22T00:53:22.295Z,57.37
2022-10-22T00:55:54.277Z,57.45
2022-10-22T00:58:31.299Z,57.58
2022-10-22T01:00:58.635Z,57.46
2022-10-22T01:03:26.146Z,57.85
2022-10-22T01:06:00.903Z,58.26
2022-10-22T01:08:46.827Z,58.05
2022-10-22T01:11:51.201Z,58.27
2022-10-22T01:14:17.943Z,59.11
2022-10-22T01:17:09.899Z,60.19
2022-10-22T01:20:10.664Z,60.54
2022-10-22T01:23:05.460Z,60.29
2022-10-22T01:25:46.430Z,60.49
2022-10-22T01:28:27.929Z,60.29
2022-10-22T01:30:58.224Z,60.35
2022-10-22T01:33:28.364Z,60.49
2022-10-22T01:35:56.279Z,60.26
2022-10-22T01:38:25.146Z,60.56
2022-10-22T01:41:01.612Z,60.30
2022-10-22T01:43:32.834Z,60.48
2022-10-22T01:46:04.789Z,60.29
2022-10-22T01:48:54.802Z,60.36
2022-10-22T01:51:27.518Z,60.07
2022-10-22T01:53:57.865Z,59.83
2022-10-22T01:56:31.529Z,60.55
2022-10-22T01:59:08.361Z,60.49
2022-10-22T02:02:05.086Z,61.13
2022-10-22T02:04:48.710Z,61.51
2022-10-22T02:07:19.762Z,62.00
2022-10-22T02:09:47.886Z,61.95
2022-10-22T02:12:17.069Z,62.14
2022-10-22T02:14:49.457Z,61.80
2022-10-22T02:17:20.221Z,61.90
2022-10-22T02:20:03.693Z,61.92
2022-10-22T02:22:30.910Z,62.16
2022-10-22T02:24:57.779Z,62.16
2022-10-22T02:27:39.093Z,62.71
2022-10-22T02:30:12.375Z,62.88
2022-10-22T02:33:02.120Z,62.92
2022-10-22T02:35:36.216Z,62.75
2022-10-22T02:38:04.474Z,62.67
2022-10-22T02:40:31.905Z,62.73
2022-10-22T02:42:58.822Z,62.39
2022-10-22T02:45:27.764Z,61.54
2022-10-22T02:47:54.431Z,60.85
2022-10-22T02:50:21.376Z,60.92
2022-10-22T02:52:48.307Z,60.66
2022-10-22T02:55:15.133Z,59.88
2022-10-22T02:57:42.443Z,59.86
2022-10-22T03:00:11.500Z,59.60
2022-10-22T03:02:38.848Z,59.45
2022-10-22T03:05:10.253Z,59.08
2022-10-22T03:07:38.247Z,59.11
2022-10-22T03:10:05.933Z,59.33
2022-10-22T03:12:33.792Z,59.15
2022-10-22T03:15:00.598Z,59.44
2022-10-22T03:17:27.708Z,59.10
2022-10-22T03:19:54.373Z,58.66
2022-10-22T03:22:27.259Z,59.10
2022-10-22T03:24:58.495Z,58.64
2022-10-22T03:27:28.520Z,59.15
2022-10-22T03:29:57.405Z,59.42
2022-10-22T03:32:24.130Z,59.98
2022-10-22T03:34:57.488Z,60.46
2022-10-22T03:37:28.960Z,60.33
2022-10-22T03:39:55.998Z,60.15
2022-10-22T03:42:25.141Z,59.89
2022-10-22T03:44:53.011Z,60.44
2022-10-22T03:47:19.664Z,60.09
2022-10-22T03:49:46.340Z,60.29
2022-10-22T03:52:14.818Z,60.12
2022-10-22T03:54:42.696Z,59.50
2022-10-22T03:57:10.318Z,58.29
2022-10-22T03:59:43.079Z,58.93
2022-10-22T04:02:13.599Z,58.83
2022-10-22T04:04:40.714Z,59.27
2022-10-22T04:07:12.104Z,59.34
2022-10-22T04:09:41.859Z,59.42
2022-10-22T04:12:09.939Z,59.27
2022-10-22T04:14:36.784Z,59.15
2022-10-22T04:17:03.718Z,59.86
2022-10-22T04:19:33.603Z,60.05
2022-10-22T04:22:01.074Z,59.93
2022-10-22T04:24:27.770Z,59.92
2022-10-22T04:26:55.225Z,59.59
2022-10-22T04:29:31.494Z,59.66
2022-10-22T04:31:58.157Z,59.95
2022-10-22T04:34:27.843Z,60.28
2022-10-22T04:36:54.455Z,60.30
2022-10-22T04:39:21.166Z,60.15
2022-10-22T04:41:47.800Z,59.62
2022-10-22T04:44:17.205Z,59.52
2022-10-22T04:46:50.644Z,59.74
2022-10-22T04:49:17.329Z,59.91
2022-10-22T04:51:44.098Z,59.58
2022-10-22T04:54:10.951Z,60.17
2022-10-22T04:56:37.873Z,59.61
2022-10-22T04:59:07.446Z,59.58
2022-10-22T05:01:40.075Z,59.98
2022-10-22T05:04:13.967Z,59.74
2022-10-22T05:06:40.683Z,60.13
2022-10-22T05:09:12.148Z,59.40
2022-10-22T05:11:41.805Z,59.76
2022-10-22T05:14:10.181Z,59.60
2022-10-22T05:16:38.175Z,59.55
2022-10-22T05:19:05.940Z,60.19
2022-10-22T05:21:33.262Z,59.46
2022-10-22T05:24:00.420Z,59.16
2022-10-22T05:26:28.591Z,59.38
2022-10-22T05:28:55.654Z,59.60
2022-10-22T05:31:22.447Z,59.45
2022-10-22T05:33:49.152Z,59.04
2022-10-22T05:36:18.591Z,58.95
2022-10-22T05:38:45.579Z,59.11
2022-10-22T05:41:27.854Z,59.02
2022-10-22T05:43:57.182Z,58.24
2022-10-22T05:46:26.020Z,58.55
2022-10-22T05:49:04.316Z,58.30
2022-10-22T05:51:33.443Z,57.97
2022-10-22T05:54:06.820Z,58.53
2022-10-22T05:56:34.113Z,58.65
2022-10-22T06:01:38.016Z,58.39
2022-10-22T06:04:07.331Z,58.57
2022-10-22T06:06:50.243Z,58.43
2022-10-22T06:09:19.526Z,58.94
2022-10-22T06:11:48.503Z,58.42
2022-10-22T06:14:15.134Z,58.97
2022-10-22T06:16:42.062Z,58.41
2022-10-22T06:19:12.702Z,58.65
2022-10-22T06:21:40.838Z,59.10
2022-10-22T06:24:08.155Z,58.82
2022-10-22T06:26:35.022Z,58.86
2022-10-22T06:29:02.220Z,59.04
2022-10-22T06:31:29.521Z,58.66
2022-10-22T06:34:02.373Z,58.46
2022-10-22T06:36:30.664Z,58.84
2022-10-22T06:38:57.739Z,59.10
2022-10-22T06:41:28.539Z,58.61
2022-10-22T06:44:01.278Z,58.92
2022-10-22T06:46:28.360Z,58.83
2022-10-22T06:48:57.963Z,59.03
2022-10-22T06:51:27.298Z,59.03
2022-10-22T06:53:55.561Z,59.06
2022-10-22T06:56:25.476Z,58.91
2022-10-22T06:58:54.386Z,59.45
2022-10-22T07:01:24.136Z,59.30
2022-10-22T07:03:52.124Z,59.14
2022-10-22T07:06:19.432Z,58.77
2022-10-22T07:08:48.094Z,58.94
2022-10-22T07:11:22.613Z,59.38
2022-10-22T07:13:53.055Z,58.79
2022-10-22T07:16:19.922Z,58.93
2022-10-22T07:18:49.984Z,59.01
2022-10-22T07:21:20.746Z,59.53
2022-10-22T07:23:50.150Z,59.51
2022-10-22T07:26:18.164Z,59.76
2022-10-22T07:28:44.970Z,60.03
2022-10-22T07:31:17.244Z,59.95
2022-10-22T07:33:46.376Z,59.78
2022-10-22T07:36:22.090Z,59.68
2022-10-22T07:38:53.882Z,59.59
2022-10-22T07:41:20.801Z,59.04
2022-10-22T07:43:50.875Z,59.54
2022-10-22T07:46:17.738Z,59.72
2022-10-22T07:48:51.825Z,60.05
2022-10-22T07:51:19.236Z,60.01
2022-10-22T07:53:49.184Z,59.77
2022-10-22T07:56:18.826Z,59.65
2022-10-22T07:58:45.673Z,59.40
2022-10-22T08:01:12.542Z,59.53
2022-10-22T08:03:42.815Z,59.71
2022-10-22T08:06:13.048Z,59.75
2022-10-22T08:08:40.082Z,59.97
2022-10-22T08:11:06.968Z,59.94
2022-10-22T08:13:33.635Z,59.52
2022-10-22T08:16:01.132Z,59.57
2022-10-22T08:18:29.222Z,59.82
2022-10-22T08:20:56.238Z,59.71
2022-10-22T08:23:28.567Z,59.30
2022-10-22T08:25:57.902Z,59.73
2022-10-22T08:28:29.699Z,59.75
2022-10-22T08:30:57.294Z,59.79
2022-10-22T08:33:24.318Z,59.87
2022-10-22T08:35:53.429Z,59.66
2022-10-22T08:38:21.337Z,60.11
2022-10-22T08:41:03.685Z,59.70
2022-10-22T08:44:03.162Z,59.18
2022-10-22T08:47:40.962Z,59.42
2022-10-22T08:50:12.406Z,59.00
2022-10-22T08:52:42.390Z,58.72
2022-10-22T08:55:14.681Z,58.94
2022-10-22T08:58:10.746Z,58.63
2022-10-22T09:00:56.438Z,58.22
2022-10-22T09:03:43.159Z,58.16
2022-10-22T09:06:36.465Z,58.03
2022-10-22T09:09:15.888Z,58.50
2022-10-22T09:11:56.775Z,58.38
2022-10-22T09:14:26.191Z,58.32
2022-10-22T09:17:20.905Z,58.08
2022-10-22T09:20:23.847Z,58.34
2022-10-22T09:23:01.165Z,58.50
2022-10-22T09:25:31.169Z,58.18
2022-10-22T09:28:00.675Z,57.88
2022-10-22T09:30:30.188Z,57.95
2022-10-22T09:33:06.174Z,58.12
2022-10-22T09:35:50.974Z,57.43
2022-10-22T09:38:20.788Z,57.26
2022-10-22T09:40:58.722Z,56.88
2022-10-22T09:43:28.068Z,56.61
2022-10-22T09:46:00.807Z,56.46
2022-10-22T09:48:34.744Z,56.64
2022-10-22T09:51:21.520Z,57.00
2022-10-22T09:53:57.235Z,56.52
2022-10-22T09:56:37.676Z,56.10
2022-10-22T09:59:15.429Z,56.58
2022-10-22T10:01:45.869Z,56.80
2022-10-22T10:04:14.984Z,57.15
2022-10-22T10:06:44.733Z,56.00
2022-10-22T10:09:22.834Z,56.13
2022-10-22T10:12:15.724Z,56.21
2022-10-22T10:14:54.521Z,55.97
2022-10-22T10:18:02.766Z,55.24
2022-10-22T10:21:04.861Z,55.15
2022-10-22T10:23:42.072Z,55.09
2022-10-22T10:26:23.384Z,54.99
2022-10-22T10:29:10.881Z,55.26
2022-10-22T10:31:54.470Z,55.24
2022-10-22T10:34:46.623Z,54.72
2022-10-22T10:37:16.448Z,54.89
2022-10-22T10:39:45.923Z,54.86
2022-10-22T10:42:36.164Z,54.41
2022-10-22T10:45:36.508Z,55.01
2022-10-22T10:48:31.406Z,54.29
2022-10-22T10:51:10.198Z,54.12
2022-10-22T10:53:57.907Z,54.47
2022-10-22T10:56:34.394Z,54.74
2022-10-22T10:59:29.432Z,55.48
2022-10-22T11:02:30.834Z,55.48
2022-10-22T11:05:14.472Z,55.34
2022-10-22T11:07:52.130Z,55.05
2022-10-22T11:10:37.183Z,54.69
2022-10-22T11:13:19.815Z,54.66
2022-10-22T11:16:00.880Z,54.45
2022-10-22T11:18:37.869Z,54.53
2022-10-22T11:21:36.185Z,54.34
2022-10-22T11:24:21.893Z,54.64
2022-10-22T11:26:58.721Z,53.56
2022-10-22T11:29:34.509Z,53.49
2022-10-22T11:32:03.923Z,53.60
2022-10-22T11:34:48.834Z,53.46
2022-10-22T11:37:16.932Z,53.59
2022-10-22T11:39:56.951Z,53.32
2022-10-22T11:42:34.400Z,53.04
2022-10-22T11:45:02.626Z,52.71
2022-10-22T11:47:51.659Z,52.90
2022-10-22T11:50:26.175Z,52.14
2022-10-22T11:53:27.973Z,52.00
2022-10-22T11:55:57.704Z,52.01
2022-10-22T11:58:39.535Z,52.67
2022-10-22T12:01:12.875Z,52.56
2022-10-22T12:03:59.596Z,52.00
2022-10-22T12:06:55.136Z,51.93
2022-10-22T12:09:30.417Z,51.61
2022-10-22T12:12:04.783Z,51.95
2022-10-22T12:14:51.480Z,52.13
2022-10-22T12:17:20.972Z,51.88
2022-10-22T12:20:14.958Z,51.83
2022-10-22T12:22:43.453Z,51.92
2022-10-22T12:25:20.152Z,52.19
2022-10-22T12:27:53.381Z,52.60
2022-10-22T12:30:23.901Z,52.47
2022-10-22T12:33:01.796Z,52.59
2022-10-22T12:35:33.562Z,53.00
2022-10-22T12:38:15.600Z,52.97
2022-10-22T12:40:45.971Z,52.86
2022-10-22T12:43:18.512Z,53.02
2022-10-22T12:45:47.442Z,53.60
2022-10-22T12:48:23.794Z,53.09
2022-10-22T12:51:05.264Z,52.60
2022-10-22T12:53:39.941Z,52.45
2022-10-22T12:56:23.181Z,52.06
2022-10-22T12:59:00.676Z,51.75
2022-10-22T13:01:38.157Z,52.04
2022-10-22T13:04:36.983Z,52.97
2022-10-22T13:07:18.437Z,53.20
2022-10-22T13:09:59.382Z,53.19
2022-10-22T13:12:27.901Z,53.38
2022-10-22T13:15:19.160Z,52.94
2022-10-22T13:17:54.782Z,52.98
2022-10-22T13:20:23.562Z,53.23
2022-10-22T13:23:04.174Z,53.04
2022-10-22T13:25:33.503Z,53.43
2022-10-22T13:28:20.050Z,53.60
2022-10-22T13:31:13.177Z,53.22
2022-10-22T13:33:43.804Z,53.32
2022-10-22T13:36:14.956Z,53.75
2022-10-22T13:38:43.089Z,53.42
2022-10-22T13:41:36.691Z,53.28
2022-10-22T13:44:03.379Z,53.68
2022-10-22T13:46:33.155Z,54.08
2022-10-22T13:49:00.727Z,53.68
2022-10-22T13:51:37.872Z,53.43
2022-10-22T13:54:14.018Z,54.73
2022-10-22T13:56:41.043Z,54.72
2022-10-22T13:59:42.877Z,54.42
2022-10-22T14:05:48.522Z,55.16
2022-10-22T14:08:32.225Z,55.14
2022-10-22T14:22:24.139Z,55.43
2022-10-22T14:24:52.028Z,56.21
2022-10-22T14:27:18.696Z,57.03
2022-10-22T14:29:46.591Z,57.67
2022-10-22T14:32:21.650Z,58.42
2022-10-22T14:34:48.859Z,58.48
2022-10-22T14:37:21.463Z,58.83
2022-10-22T14:39:52.500Z,58.66
2022-10-22T14:42:25.716Z,59.13
2022-10-22T14:44:52.484Z,59.32
2022-10-22T14:47:22.093Z,59.34
2022-10-22T14:49:51.692Z,59.80
2022-10-22T14:52:20.308Z,59.66
2022-10-22T14:54:50.382Z,59.69
2022-10-22T14:57:17.136Z,60.15
2022-10-22T14:59:47.059Z,60.28
2022-10-22T15:02:14.019Z,59.80
2022-10-22T15:04:41.370Z,59.89
2022-10-22T15:07:08.167Z,59.66
2022-10-22T15:09:34.957Z,59.89
2022-10-22T15:12:01.666Z,60.15
2022-10-22T15:14:28.320Z,59.91
2022-10-22T15:16:54.968Z,59.91
2022-10-22T15:19:21.726Z,60.22
2022-10-22T15:21:53.683Z,59.91
2022-10-22T15:24:20.390Z,59.77
2022-10-22T15:26:47.300Z,59.72
2022-10-22T15:29:16.627Z,60.01
2022-10-22T15:31:44.386Z,60.33
2022-10-22T15:34:11.460Z,60.24
2022-10-22T15:36:38.290Z,60.48
2022-10-22T15:39:12.713Z,60.16
2022-10-22T15:41:39.943Z,60.31
2022-10-22T15:44:08.672Z,60.44
2022-10-22T15:46:36.063Z,60.39
2022-10-22T15:49:02.953Z,60.51
2022-10-22T15:51:29.698Z,60.88
2022-10-22T15:53:59.081Z,61.13
2022-10-22T15:56:28.860Z,61.24
2022-10-22T15:59:04.149Z,61.77
2022-10-22T16:01:34.181Z,62.12
2022-10-22T16:04:04.690Z,62.17
2022-10-22T16:06:56.565Z,61.71
2022-10-22T16:09:28.926Z,61.62
2022-10-22T16:11:56.105Z,61.96
2022-10-22T16:14:24.282Z,61.96
2022-10-22T16:16:59.526Z,61.85
2022-10-22T16:19:26.323Z,62.34
2022-10-22T16:22:06.635Z,62.05
2022-10-22T16:24:33.493Z,62.26
2022-10-22T16:27:00.303Z,62.29
2022-10-22T16:29:27.374Z,62.45
2022-10-22T16:32:01.135Z,62.86
2022-10-22T16:34:28.448Z,63.04
2022-10-22T16:36:57.255Z,63.31
2022-10-22T16:39:23.990Z,63.22
2022-10-22T16:41:50.580Z,63.34
2022-10-22T16:44:17.233Z,63.44
2022-10-22T16:46:44.210Z,63.59
2022-10-22T16:49:11.136Z,63.99
2022-10-22T16:51:38.172Z,63.73
2022-10-22T16:54:08.175Z,64.12
2022-10-22T16:56:38.158Z,64.14
2022-10-22T16:59:04.849Z,64.06
2022-10-22T17:01:33.222Z,64.04
2022-10-22T17:04:01.925Z,64.36
2022-10-22T17:06:28.714Z,64.76
2022-10-22T17:08:57.214Z,64.87
2022-10-22T17:11:25.232Z,64.95
2022-10-22T17:13:54.222Z,64.82
2022-10-22T17:16:27.803Z,65.44
2022-10-22T17:18:55.818Z,65.51
2022-10-22T17:21:23.785Z,65.40
2022-10-22T17:23:56.815Z,65.77
2022-10-22T17:26:26.912Z,65.56
2022-10-22T17:28:56.834Z,65.35
2022-10-22T17:31:38.747Z,65.84
2022-10-22T17:34:08.288Z,65.99
2022-10-22T17:36:37.566Z,66.14
2022-10-22T17:39:07.300Z,66.40
2022-10-22T17:41:36.630Z,66.68
2022-10-22T17:44:10.952Z,66.73
2022-10-22T17:46:46.826Z,66.95
2022-10-22T17:49:17.614Z,66.86
2022-10-22T17:51:44.622Z,67.19
2022-10-22T17:54:12.494Z,67.24
2022-10-22T17:56:40.268Z,67.14
2022-10-22T17:59:08.323Z,66.98
2022-10-22T18:01:39.535Z,67.28
2022-10-22T18:04:08.536Z,67.16
2022-10-22T18:06:36.185Z,66.84
2022-10-22T18:09:14.440Z,67.52
2022-10-22T18:11:44.392Z,67.49
2022-10-22T18:14:14.071Z,67.50
2022-10-22T18:16:40.945Z,67.25
2022-10-22T18:19:09.803Z,67.06
2022-10-22T18:21:37.077Z,67.08
2022-10-22T18:24:07.020Z,66.75
2022-10-22T18:26:35.040Z,66.31
2022-10-22T18:29:01.910Z,66.80
2022-10-22T18:31:30.321Z,66.92
2022-10-22T18:33:57.691Z,67.16
2022-10-22T18:36:26.476Z,67.32
2022-10-22T18:39:04.229Z,67.35
2022-10-22T18:41:33.570Z,67.36
2022-10-22T18:44:15.191Z,67.27
2022-10-22T18:46:44.699Z,67.46
2022-10-22T18:49:18.577Z,67.31
2022-10-22T18:51:49.118Z,67.64
2022-10-22T18:54:23.269Z,67.28
2022-10-22T18:56:50.933Z,67.47
2022-10-22T18:59:23.840Z,67.57
2022-10-22T19:01:54.983Z,67.83
2022-10-22T19:04:22.087Z,67.77
2022-10-22T19:06:53.707Z,67.73
2022-10-22T19:09:22.830Z,67.96
2022-10-22T19:11:49.696Z,68.17
2022-10-22T19:14:30.260Z,68.33
2022-10-22T19:16:57.107Z,68.12
2022-10-22T19:19:24.668Z,67.52
2022-10-22T19:21:51.723Z,68.43
2022-10-22T19:24:24.688Z,68.57
2022-10-22T19:26:51.769Z,68.74
2022-10-22T19:29:20.907Z,69.17
2022-10-22T19:31:48.196Z,68.90
2022-10-22T19:34:14.814Z,69.20
2022-10-22T19:36:41.746Z,69.36
2022-10-22T19:39:15.754Z,69.30
2022-10-22T19:41:44.839Z,69.52
2022-10-22T19:44:12.996Z,69.58
2022-10-22T19:46:40.222Z,69.63
2022-10-22T19:49:10.674Z,69.69
2022-10-22T19:51:41.061Z,69.98
2022-10-22T19:54:12.713Z,70.28
2022-10-22T19:56:45.336Z,70.24
2022-10-22T19:59:12.322Z,70.73
2022-10-22T20:01:39.129Z,71.06
2022-10-22T20:04:06.329Z,71.17
2022-10-22T20:06:33.096Z,71.37
2022-10-22T20:09:02.915Z,71.35
2022-10-22T20:11:30.717Z,71.29
2022-10-22T20:13:59.012Z,71.37
2022-10-22T20:16:30.004Z,71.12
2022-10-22T20:19:01.828Z,71.25
2022-10-22T20:21:29.117Z,71.64
2022-10-22T20:23:57.705Z,71.51
2022-10-22T20:26:28.122Z,71.67
2022-10-22T20:28:56.417Z,71.66
2022-10-22T20:31:25.261Z,71.47
2022-10-22T20:33:52.108Z,71.81
2022-10-22T20:36:23.794Z,71.87
2022-10-22T20:38:51.603Z,71.79
2022-10-22T20:41:24.889Z,72.02
2022-10-22T20:43:52.432Z,71.69
2022-10-22T20:46:25.760Z,71.85
2022-10-22T20:48:56.287Z,71.94
2022-10-22T20:51:23.061Z,71.97
2022-10-22T20:53:52.880Z,71.80
2022-10-22T20:56:23.355Z,72.27
2022-10-22T20:58:54.069Z,72.43
2022-10-22T21:01:24.345Z,72.36
2022-10-22T21:03:54.399Z,71.80
2022-10-22T21:06:23.328Z,72.02
2022-10-22T21:08:52.065Z,71.93
2022-10-22T21:11:23.456Z,71.93
2022-10-22T21:13:51.808Z,71.72
2022-10-22T21:16:19.605Z,71.53
2022-10-22T21:18:47.226Z,71.96
2022-10-22T21:21:19.545Z,72.01
2022-10-22T21:23:46.951Z,72.06
2022-10-22T21:26:13.693Z,72.36
2022-10-22T21:28:43.093Z,72.23
2022-10-22T21:31:11.297Z,72.75
2022-10-22T21:33:42.379Z,72.63
2022-10-22T21:36:09.640Z,72.82
2022-10-22T21:38:38.050Z,72.65
2022-10-22T21:41:06.866Z,72.96
2022-10-22T21:43:34.018Z,73.25
2022-10-22T21:46:08.665Z,73.57
2022-10-22T21:48:39.696Z,73.84
2022-10-22T21:51:13.511Z,73.76
2022-10-22T21:53:40.492Z,73.73
2022-10-22T21:56:08.357Z,74.12
2022-10-22T21:58:36.368Z,74.24
2022-10-22T22:01:06.217Z,74.26
2022-10-22T22:03:34.760Z,74.10
2022-10-22T22:06:05.269Z,74.24
2022-10-22T22:08:34.863Z,74.07
2022-10-22T22:11:30.931Z,74.54
2022-10-22T22:13:59.820Z,74.59
2022-10-22T22:16:35.180Z,74.77
2022-10-22T22:21:32.273Z,74.72
2022-10-22T22:23:59.580Z,74.90
2022-10-22T22:26:31.641Z,74.89
2022-10-22T22:28:59.776Z,75.05
2022-10-22T22:31:32.389Z,74.92
2022-10-22T22:34:14.170Z,74.88
2022-10-22T22:36:42.178Z,74.80
2022-10-22T22:39:15.477Z,74.59
2022-10-22T22:41:43.159Z,74.49
2022-10-22T22:44:10.291Z,74.36
2022-10-22T22:46:37.431Z,74.46
2022-10-22T22:49:04.888Z,73.84
2022-10-22T22:51:32.782Z,73.96
2022-10-22T22:54:03.400Z,73.88
2022-10-22T22:56:32.621Z,73.66
2022-10-22T22:59:02.046Z,74.00
2022-10-22T23:01:48.893Z,73.41
2022-10-22T23:04:25.360Z,72.91
2022-10-22T23:06:53.112Z,73.25
2022-10-22T23:11:47.382Z,72.56
2022-10-22T23:14:18.177Z,72.03
2022-10-22T23:16:47.981Z,71.95
2022-10-22T23:19:17.775Z,71.99
2022-10-22T23:21:53.483Z,71.99
2022-10-22T23:24:25.446Z,71.79
2022-10-22T23:26:54.200Z,72.06
2022-10-22T23:29:28.788Z,71.67
2022-10-22T23:31:55.955Z,72.22
2022-10-22T23:34:27.751Z,72.24
2022-10-22T23:36:57.648Z,72.26
2022-10-22T23:39:27.542Z,72.07
2022-10-22T23:41:55.347Z,72.19
2022-10-22T23:44:23.179Z,72.08
2022-10-22T23:46:50.479Z,71.96
2022-10-22T23:49:18.006Z,72.48
2022-10-22T23:51:44.716Z,73.06
2022-10-22T23:54:17.685Z,72.43
2022-10-22T23:56:44.431Z,72.62
2022-10-22T23:59:11.231Z,72.55
